Time;durP1;ratioP1;P1;durP2;ratioP2;P2;SDS_P1;SDS_P2;PMS_P1;PMS_P2;Temp;Humidity;BMP_temperature;BMP_pressure;BME280_temperature;BME280_humidity;BME280_pressure;Samples;Min_cycle;Max_cycle;Signal;HPM_P1;HPM_P2
2022/02/12 00:00:56;;;;;;;15.18;3.95;;;;;;;-2.58;100.00;103127.53;4986553;28;20038;-75
2022/02/12 00:03:23;;;;;;;18.83;4.18;;;;;;;-2.57;100.00;103126.69;4970527;28;20559;-75
2022/02/12 00:05:49;;;;;;;19.58;5.10;;;;;;;-2.52;100.00;103129.22;4971853;28;20398;-74
2022/02/12 00:08:15;;;;;;;16.85;4.20;;;;;;;-2.55;100.00;103127.53;4970458;28;20052;-75
2022/02/12 00:10:40;;;;;;;18.65;4.53;;;;;;;-2.53;100.00;103137.81;4984936;28;20509;-74
2022/02/12 00:13:10;;;;;;;18.02;4.80;;;;;;;-2.52;100.00;103136.94;4974666;28;20043;-75
2022/02/12 00:15:35;;;;;;;16.67;4.40;;;;;;;-2.56;100.00;103146.41;4978243;28;20034;-75
2022/02/12 00:18:01;;;;;;;27.45;4.60;;;;;;;-2.57;100.00;103145.53;4993547;28;20052;-76
2022/02/12 00:20:26;;;;;;;18.48;3.78;;;;;;;-2.70;100.00;103137.84;4964666;28;20560;-76
2022/02/12 00:22:52;;;;;;;17.60;4.35;;;;;;;-2.72;100.00;103149.84;4982015;28;20117;-76
2022/02/12 00:25:18;;;;;;;20.23;4.20;;;;;;;-2.76;100.00;103141.28;4982530;28;20429;-75
2022/02/12 00:27:43;;;;;;;22.58;4.72;;;;;;;-2.77;100.00;103144.69;4970957;28;20046;-74
2022/02/12 00:30:09;;;;;;;16.13;4.22;;;;;;;-2.85;100.00;103141.28;4969705;28;20041;-75
2022/02/12 00:32:35;;;;;;;29.17;5.38;;;;;;;-2.85;100.00;103152.41;4966024;28;20149;-75
2022/02/12 00:35:01;;;;;;;20.02;4.60;;;;;;;-2.79;100.00;103156.69;4983159;28;20529;-74
2022/02/12 00:37:29;;;;;;;17.08;4.13;;;;;;;-2.77;100.00;103157.53;4975045;28;20804;-76
2022/02/12 00:39:55;;;;;;;18.92;4.82;;;;;;;-2.83;100.00;103147.28;4988072;28;20034;-75
2022/02/12 00:42:22;;;;;;;16.08;4.28;;;;;;;-2.79;100.00;103151.53;4981811;28;20045;-75
2022/02/12 00:44:48;;;;;;;15.27;3.97;;;;;;;-2.76;100.00;103147.25;4999737;28;20039;-74
2022/02/12 00:47:14;;;;;;;15.23;4.10;;;;;;;-2.81;100.00;103148.97;4984448;28;20689;-75
2022/02/12 00:49:40;;;;;;;20.60;4.03;;;;;;;-2.72;100.00;103149.84;4973580;28;20041;-76
2022/02/12 00:52:06;;;;;;;23.50;3.50;;;;;;;-2.76;100.00;103142.13;4995360;28;20416;-76
2022/02/12 00:54:32;;;;;;;14.18;3.92;;;;;;;-2.77;100.00;103148.13;4963831;28;20026;-74
2022/02/12 00:57:01;;;;;;;15.20;3.63;;;;;;;-2.86;100.00;103137.88;4981182;28;20042;-74
2022/02/12 00:59:26;;;;;;;17.42;3.72;;;;;;;-2.86;100.00;103137.88;4979847;28;20041;-75
2022/02/12 01:01:52;;;;;;;14.93;3.38;;;;;;;-2.89;100.00;103140.44;4971915;28;20038;-74
2022/02/12 01:04:18;;;;;;;16.75;3.92;;;;;;;-2.94;100.00;103132.75;4967778;28;20038;-74
2022/02/12 01:06:43;;;;;;;15.85;3.40;;;;;;;-2.88;100.00;103143.84;4987077;28;20033;-74
2022/02/12 01:09:09;;;;;;;16.92;4.55;;;;;;;-2.86;100.00;103137.00;4982803;28;20408;-74
2022/02/12 01:11:34;;;;;;;25.15;4.13;;;;;;;-2.92;100.00;103142.97;4978814;28;20069;-74
2022/02/12 01:14:00;;;;;;;15.98;3.38;;;;;;;-2.92;100.00;103145.56;4974581;28;20038;-75
2022/02/12 01:16:26;;;;;;;18.70;3.55;;;;;;;-2.96;100.00;103146.41;4982311;28;20038;-74
2022/02/12 01:18:51;;;;;;;19.67;3.90;;;;;;;-2.94;100.00;103143.00;4991015;28;20547;-74
2022/02/12 01:21:19;;;;;;;16.73;3.33;;;;;;;-2.95;100.00;103145.56;4979002;28;20038;-74
2022/02/12 01:23:47;;;;;;;21.08;3.63;;;;;;;-2.96;100.00;103146.41;4958194;28;20034;-74
2022/02/12 01:26:12;;;;;;;16.33;3.58;;;;;;;-2.99;100.00;103139.59;4987246;28;20485;-74
2022/02/12 01:28:38;;;;;;;19.95;3.83;;;;;;;-2.92;100.00;103144.69;4989952;28;20066;-74
2022/02/12 01:31:04;;;;;;;22.60;4.10;;;;;;;-2.91;100.00;103146.44;4990319;28;20092;-74
2022/02/12 01:33:29;;;;;;;19.40;3.45;;;;;;;-2.91;100.00;103141.28;4972869;28;20046;-74
2022/02/12 01:35:55;;;;;;;23.58;3.90;;;;;;;-2.92;100.00;103144.69;4993822;28;20513;-74
2022/02/12 01:38:21;;;;;;;19.67;4.28;;;;;;;-2.98;100.00;103136.13;4971756;28;20038;-74
2022/02/12 01:40:48;;;;;;;24.30;4.60;;;;;;;-2.95;100.00;103146.41;4983860;28;20109;-76
2022/02/12 01:43:14;;;;;;;16.58;4.25;;;;;;;-2.93;100.00;103143.84;4981767;28;20089;-75
2022/02/12 01:45:40;;;;;;;17.48;4.07;;;;;;;-3.02;100.00;103134.44;4974760;28;20498;-74
2022/02/12 01:48:06;;;;;;;18.48;3.90;;;;;;;-2.95;100.00;103143.00;4986218;28;20046;-75
2022/02/12 01:50:32;;;;;;;17.60;4.07;;;;;;;-2.96;100.00;103152.44;4975719;28;20026;-75
2022/02/12 01:52:58;;;;;;;17.02;3.92;;;;;;;-2.97;100.00;103142.16;4979083;28;20041;-74
2022/02/12 01:55:24;;;;;;;26.70;4.90;;;;;;;-3.00;100.00;103142.13;4965853;28;20034;-76
2022/02/12 01:57:49;;;;;;;17.77;3.78;;;;;;;-3.09;100.00;103140.41;4986696;28;20034;-74
2022/02/12 02:00:18;;;;;;;16.35;4.05;;;;;;;-3.15;100.00;103138.72;4989880;28;20038;-75
2022/02/12 02:02:44;;;;;;;14.85;4.05;;;;;;;-3.22;100.00;103141.28;4976812;28;20493;-74
2022/02/12 02:05:14;;;;;;;18.67;3.88;;;;;;;-3.23;100.00;103147.28;4990928;28;20046;-74
2022/02/12 02:07:41;;;;;;;15.05;3.63;;;;;;;-3.33;100.00;103128.44;4987773;28;20030;-73
2022/02/12 02:10:10;;;;;;;16.83;4.13;;;;;;;-3.34;100.00;103134.44;4975635;28;20468;-74
2022/02/12 02:12:36;;;;;;;22.05;4.10;;;;;;;-3.39;100.00;103125.84;4985416;28;20097;-74
2022/02/12 02:15:03;;;;;;;15.70;3.40;;;;;;;-3.40;100.00;103127.56;4983432;28;20030;-75
2022/02/12 02:17:28;;;;;;;16.98;4.22;;;;;;;-3.42;100.00;103129.28;5000310;28;20061;-76
2022/02/12 02:19:54;;;;;;;15.57;3.88;;;;;;;-3.44;100.00;103110.47;4995404;28;20516;-75
2022/02/12 02:22:28;;;;;;;17.00;4.25;;;;;;;-3.46;100.00;103116.47;4984030;28;20045;-75
2022/02/12 02:24:54;;;;;;;22.77;4.97;;;;;;;-3.46;100.00;103117.31;4984539;28;20096;-73
2022/02/12 02:27:21;;;;;;;18.60;4.30;;;;;;;-3.49;100.00;103108.75;4966142;28;20030;-75
2022/02/12 02:29:47;;;;;;;16.33;4.03;;;;;;;-3.49;100.00;103112.16;4975091;28;20042;-75
2022/02/12 02:32:14;;;;;;;17.25;4.30;;;;;;;-3.50;100.00;103113.03;4963063;28;20033;-75
2022/02/12 02:34:54;;;;;;;16.05;4.13;;;;;;;-3.53;100.00;103102.75;4976435;28;20416;-74
2022/02/12 02:37:21;;;;;;;19.17;4.57;;;;;;;-3.53;100.00;103103.59;4984727;28;20039;-74
2022/02/12 02:39:48;;;;;;;16.30;4.07;;;;;;;-3.52;100.00;103115.59;4977959;28;20045;-75
2022/02/12 02:42:14;;;;;;;16.75;4.80;;;;;;;-3.47;100.00;103100.19;4949169;28;20488;-74
2022/02/12 02:44:39;;;;;;;22.50;4.70;;;;;;;-3.34;100.00;103107.03;4986433;28;20034;-74
2022/02/12 02:49:51;;;;;;;20.20;4.93;;;;;;;-3.19;100.00;103087.38;4985655;28;20041;-74
2022/02/12 02:57:45;;;;;;;24.05;5.90;;;;;;;-3.04;100.00;103089.94;4972450;28;20070;-75
2022/02/12 03:00:12;;;;;;;19.63;5.88;;;;;;;-3.02;100.00;103089.94;4965803;28;20045;-75
2022/02/12 03:02:37;;;;;;;18.75;5.45;;;;;;;-3.01;100.00;103092.50;4992620;28;20046;-75
2022/02/12 03:05:04;;;;;;;18.27;5.53;;;;;;;-3.01;100.00;103089.09;4966627;28;20041;-76
2022/02/12 03:07:30;;;;;;;21.83;5.90;;;;;;;-3.06;100.00;103077.97;4979783;28;20440;-76
2022/02/12 03:09:56;;;;;;;22.55;6.18;;;;;;;-2.99;100.00;103079.66;4972863;28;20049;-75
2022/02/12 03:12:21;;;;;;;25.75;6.50;;;;;;;-3.00;100.00;103078.78;4974603;28;20399;-75
2022/02/12 03:14:47;;;;;;;21.20;6.72;;;;;;;-3.04;100.00;103083.94;4961028;28;20042;-74
2022/02/12 03:17:12;;;;;;;22.45;6.32;;;;;;;-3.01;100.00;103082.22;4988411;28;20116;-74
2022/02/12 03:19:38;;;;;;;22.60;6.28;;;;;;;-2.97;100.00;103078.78;4993693;28;20042;-75
2022/02/12 03:22:03;;;;;;;27.75;6.85;;;;;;;-2.88;100.00;103082.19;4982382;28;20057;-75
2022/02/12 03:24:29;;;;;;;22.15;7.57;;;;;;;-2.80;100.00;103072.78;4986133;28;20041;-74
2022/02/12 03:26:55;;;;;;;29.00;7.47;;;;;;;-2.61;100.00;103074.44;4997883;28;20192;-74
2022/02/12 03:29:22;;;;;;;25.45;8.10;;;;;;;-2.56;100.00;103067.56;4968716;28;20511;-74
2022/02/12 03:31:48;;;;;;;30.83;8.57;;;;;;;-2.42;100.00;103067.53;4981819;28;20094;-74
2022/02/12 03:34:14;;;;;;;22.77;9.27;;;;;;;-2.41;100.00;103076.97;4981748;28;20252;-75
2022/02/12 03:36:40;;;;;;;24.48;9.00;;;;;;;-2.37;100.00;103072.66;4989221;28;20038;-75
2022/02/12 03:39:05;;;;;;;27.50;9.45;;;;;;;-2.39;100.00;103064.94;4986374;28;20169;-75
2022/02/12 03:41:31;;;;;;;32.63;9.43;;;;;;;-2.34;100.00;103059.78;4977206;28;20097;-75
2022/02/12 03:43:56;;;;;;;23.83;9.18;;;;;;;-2.29;100.00;103068.34;4981467;28;20042;-75
2022/02/12 03:46:22;;;;;;;26.33;9.02;;;;;;;-2.17;100.00;103064.84;4981270;28;20245;-75
2022/02/12 03:48:47;;;;;;;31.50;9.88;;;;;;;-2.14;100.00;103071.72;4985535;28;20489;-75
2022/02/12 03:51:16;;;;;;;29.25;10.95;;;;;;;-2.10;100.00;103076.81;4982231;28;20408;-75
2022/02/12 03:53:41;;;;;;;25.38;9.93;;;;;;;-2.08;100.00;103067.38;4973292;28;20039;-75
2022/02/12 03:56:07;;;;;;;33.72;10.68;;;;;;;-2.09;100.00;103070.81;4992900;28;20081;-76
2022/02/12 03:58:33;;;;;;;31.45;10.88;;;;;;;-2.09;100.00;103063.09;4975286;28;20039;-76
2022/02/12 04:00:58;;;;;;;32.97;11.43;;;;;;;-2.08;100.00;103058.81;4978291;28;20690;-75
2022/02/12 04:03:24;;;;;;;28.08;11.98;;;;;;;-2.03;100.00;103057.91;4984182;28;20496;-75
2022/02/12 04:05:49;;;;;;;25.00;11.70;;;;;;;-1.97;100.00;103065.59;4969265;28;20039;-75
2022/02/12 04:08:18;;;;;;;26.52;11.68;;;;;;;-1.91;100.00;103062.13;4978734;28;20026;-75
2022/02/12 04:10:46;;;;;;;32.80;12.13;;;;;;;-1.91;100.00;103056.13;4983572;28;20027;-75
2022/02/12 04:13:11;;;;;;;25.50;12.43;;;;;;;-1.85;100.00;103062.09;4989371;28;20099;-74
2022/02/12 04:15:37;;;;;;;31.75;12.25;;;;;;;-1.88;100.00;103051.00;4973922;28;20129;-74
2022/02/12 04:18:03;;;;;;;32.70;13.00;;;;;;;-1.80;100.00;103054.34;5005748;28;20260;-75
2022/02/12 04:20:29;;;;;;;28.60;11.75;;;;;;;-1.81;100.00;103050.94;4994701;28;20033;-75
2022/02/12 04:22:55;;;;;;;28.00;12.15;;;;;;;-1.74;100.00;103056.88;4994940;28;20146;-75
2022/02/12 04:25:23;;;;;;;26.25;11.57;;;;;;;-1.68;100.00;103051.69;4968665;28;20138;-75
2022/02/12 04:27:49;;;;;;;27.50;10.48;;;;;;;-1.63;100.00;103046.53;4973124;28;20039;-75
2022/02/12 04:30:15;;;;;;;36.60;11.35;;;;;;;-1.70;100.00;103050.84;4968561;28;20377;-75
2022/02/12 04:32:42;;;;;;;28.75;11.10;;;;;;;-1.76;100.00;103044.03;4985596;28;20042;-74
2022/02/12 04:35:10;;;;;;;29.23;10.77;;;;;;;-1.76;100.00;103043.16;4977330;28;20050;-76
2022/02/12 04:37:36;;;;;;;29.02;11.07;;;;;;;-1.77;100.00;103047.47;4982804;28;20129;-76
2022/02/12 04:40:03;;;;;;;25.52;10.07;;;;;;;-1.72;100.00;103039.72;4976786;28;20034;-76
2022/02/12 04:42:29;;;;;;;25.42;9.73;;;;;;;-1.72;100.00;103038.88;4989552;28;20501;-76
2022/02/12 04:44:54;;;;;;;28.90;10.93;;;;;;;-1.77;100.00;103023.47;4979078;28;20043;-75
2022/02/12 04:47:22;;;;;;;26.20;10.45;;;;;;;-1.72;100.00;103034.56;4976104;28;20038;-75
2022/02/12 04:49:49;;;;;;;29.63;10.60;;;;;;;-1.68;100.00;103032.81;4991973;28;20034;-75
2022/02/12 04:52:17;;;;;;;26.75;9.88;;;;;;;-1.69;100.00;103024.25;4988998;28;20755;-75
2022/02/12 04:54:42;;;;;;;24.55;8.80;;;;;;;-1.56;100.00;103022.44;4991139;28;20023;-76
2022/02/12 04:57:08;;;;;;;24.35;9.18;;;;;;;-1.62;100.00;103015.63;4975028;28;20048;-76
2022/02/12 04:59:34;;;;;;;26.10;8.73;;;;;;;-1.62;100.00;103019.91;4992824;28;20489;-75
2022/02/12 05:02:00;;;;;;;24.73;8.90;;;;;;;-1.62;100.00;103017.31;4978415;28;20038;-75
2022/02/12 05:04:26;;;;;;;22.83;8.98;;;;;;;-1.63;100.00;103025.94;4972762;28;20052;-75
2022/02/12 05:06:52;;;;;;;26.88;8.68;;;;;;;-1.67;100.00;103013.97;4990642;28;20027;-75
2022/02/12 05:09:18;;;;;;;28.55;8.43;;;;;;;-1.72;100.00;103015.72;4992706;28;20492;-74
2022/02/12 05:11:50;;;;;;;32.40;8.85;;;;;;;-1.70;100.00;103017.38;4989424;28;20045;-75
2022/02/12 05:14:18;;;;;;;24.60;8.32;;;;;;;-1.72;100.00;103008.81;4980972;28;20484;-74
2022/02/12 05:16:44;;;;;;;20.38;8.25;;;;;;;-1.77;100.00;103011.44;4981183;28;20055;-74
2022/02/12 05:19:10;;;;;;;25.63;8.07;;;;;;;-1.76;100.00;103009.72;4984701;28;20117;-75
2022/02/12 05:21:36;;;;;;;25.23;8.15;;;;;;;-1.79;100.00;103005.47;4981835;28;20058;-75
2022/02/12 05:24:01;;;;;;;19.00;7.75;;;;;;;-1.84;100.00;103003.78;4991365;28;20034;-75
2022/02/12 05:26:28;;;;;;;23.23;7.30;;;;;;;-1.78;100.00;102999.44;4969685;28;20097;-75
2022/02/12 05:28:54;;;;;;;21.23;7.28;;;;;;;-1.72;100.00;102993.38;4982300;28;20042;-74
2022/02/12 05:31:20;;;;;;;22.38;6.63;;;;;;;-1.82;100.00;102987.47;4989666;28;20030;-75
2022/02/12 05:33:46;;;;;;;20.73;6.97;;;;;;;-1.85;100.00;102981.50;4982307;28;20039;-75
2022/02/12 05:36:13;;;;;;;21.58;6.55;;;;;;;-1.91;100.00;102986.69;4983611;28;20043;-76
2022/02/12 05:38:40;;;;;;;20.00;7.05;;;;;;;-1.97;100.00;102985.00;4985722;28;20034;-75
2022/02/12 05:41:07;;;;;;;17.67;6.65;;;;;;;-2.06;100.00;102975.63;4974882;28;20129;-75
2022/02/12 05:43:33;;;;;;;23.75;7.28;;;;;;;-2.04;100.00;102983.34;4990299;28;20096;-75
2022/02/12 05:46:00;;;;;;;20.40;6.80;;;;;;;-2.09;100.00;102975.66;4975190;28;20041;-75
2022/02/12 05:48:26;;;;;;;19.15;7.10;;;;;;;-1.97;100.00;102982.44;4959304;28;20038;-75
2022/02/12 05:50:53;;;;;;;25.00;7.03;;;;;;;-2.05;100.00;102981.66;4985257;28;20074;-76
2022/02/12 05:53:20;;;;;;;17.73;6.50;;;;;;;-2.06;100.00;102967.06;4980393;28;20030;-75
2022/02/12 05:55:45;;;;;;;20.25;6.90;;;;;;;-2.05;100.00;102982.50;4955014;28;20049;-76
2022/02/12 05:58:11;;;;;;;18.80;6.00;;;;;;;-1.93;100.00;102968.69;4991681;28;20060;-75
2022/02/12 06:00:36;;;;;;;24.65;6.72;;;;;;;-1.99;100.00;102974.72;4984531;28;20409;-75
2022/02/12 06:03:02;;;;;;;20.73;6.50;;;;;;;-1.99;100.00;102972.16;4990863;28;20142;-75
2022/02/12 06:05:28;;;;;;;18.38;7.00;;;;;;;-2.04;100.00;102966.19;4983924;28;20133;-74
2022/02/12 06:07:54;;;;;;;19.25;6.15;;;;;;;-1.90;100.00;102968.69;4983666;28;20487;-75
2022/02/12 06:10:21;;;;;;;21.33;6.32;;;;;;;-1.96;100.00;102968.69;4973308;28;20030;-76
2022/02/12 06:12:47;;;;;;;20.98;6.32;;;;;;;-2.05;100.00;102967.06;4975910;28;20493;-75
2022/02/12 06:15:13;;;;;;;17.73;6.00;;;;;;;-2.00;100.00;102964.44;4989062;28;20035;-76
2022/02/12 06:17:40;;;;;;;22.45;6.30;;;;;;;-2.00;100.00;102964.44;4981009;28;20030;-75
2022/02/12 06:20:06;;;;;;;18.38;5.90;;;;;;;-1.91;100.00;102977.25;4988277;28;20074;-75
2022/02/12 06:22:31;;;;;;;21.02;6.25;;;;;;;-1.92;100.00;102970.41;4987831;28;20477;-74
2022/02/12 06:24:57;;;;;;;27.17;6.25;;;;;;;-1.87;100.00;102962.63;4988508;28;20045;-74
2022/02/12 06:27:23;;;;;;;18.88;5.68;;;;;;;-1.87;100.00;102963.50;4992702;28;20125;-76
2022/02/12 06:29:49;;;;;;;22.10;5.53;;;;;;;-1.87;100.00;102966.06;4974721;28;20030;-75
2022/02/12 06:32:14;;;;;;;19.58;5.28;;;;;;;-1.87;100.00;102965.22;4973955;28;20068;-75
2022/02/12 06:34:40;;;;;;;20.80;5.70;;;;;;;-2.00;100.00;102959.31;4995131;28;20035;-75
2022/02/12 06:37:06;;;;;;;20.15;5.57;;;;;;;-2.02;100.00;102961.03;4971908;28;20043;-76
2022/02/12 06:39:32;;;;;;;26.65;5.65;;;;;;;-2.06;100.00;102964.50;4970104;28;20035;-76
2022/02/12 06:41:58;;;;;;;19.90;5.80;;;;;;;-2.01;100.00;102955.88;4987624;28;20084;-75
2022/02/12 06:44:24;;;;;;;27.05;5.40;;;;;;;-1.96;100.00;102955.84;4971406;28;20042;-75
2022/02/12 06:46:50;;;;;;;17.88;4.82;;;;;;;-1.95;100.00;102952.41;4971466;28;20038;-75
2022/02/12 06:49:16;;;;;;;24.27;5.50;;;;;;;-1.97;100.00;102949.84;4986251;28;20030;-74
2022/02/12 06:51:42;;;;;;;18.77;4.88;;;;;;;-2.01;100.00;102955.88;4971606;28;20038;-76
2022/02/12 06:54:08;;;;;;;22.85;5.00;;;;;;;-2.04;100.00;102950.75;4962684;28;20050;-75
2022/02/12 06:56:34;;;;;;;20.98;5.00;;;;;;;-2.04;100.00;102947.34;4966960;28;20038;-75
2022/02/12 06:59:00;;;;;;;15.68;4.60;;;;;;;-1.98;100.00;102943.00;4961665;28;20050;-76
2022/02/12 07:01:28;;;;;;;21.95;5.13;;;;;;;-2.07;100.00;102934.47;4986172;28;20027;-74
2022/02/12 07:03:56;;;;;;;26.15;5.88;;;;;;;-1.97;100.00;102947.28;4964893;28;20034;-75
2022/02/12 07:06:23;;;;;;;23.73;6.45;;;;;;;-1.92;100.00;102951.53;4980910;28;20136;-75
2022/02/12 07:08:49;;;;;;;25.55;8.70;;;;;;;-1.93;100.00;102939.53;4977072;28;20031;-74
2022/02/12 07:11:15;;;;;;;24.48;7.10;;;;;;;-1.80;100.00;102951.44;4966632;28;20053;-74
2022/02/12 07:13:40;;;;;;;26.95;6.28;;;;;;;-1.80;100.00;102951.44;4983793;28;20062;-74
2022/02/12 07:16:06;;;;;;;19.15;6.00;;;;;;;-1.70;100.00;102957.34;4978349;28;20043;-75
2022/02/12 07:18:32;;;;;;;28.30;5.63;;;;;;;-1.68;100.00;102956.47;4975000;28;20464;-75
2022/02/12 07:20:57;;;;;;;22.70;5.47;;;;;;;-1.68;100.00;102950.47;4968722;28;20026;-75
2022/02/12 07:23:23;;;;;;;17.33;5.15;;;;;;;-1.70;100.00;102944.50;4961008;28;20035;-74
2022/02/12 07:25:48;;;;;;;23.85;4.93;;;;;;;-1.69;100.00;102946.22;4968135;28;20066;-75
2022/02/12 07:28:14;;;;;;;32.38;5.35;;;;;;;-1.61;100.00;102942.69;4984608;28;20081;-74
2022/02/12 07:30:41;;;;;;;20.20;4.88;;;;;;;-1.56;100.00;102937.50;4985944;28;20054;-75
2022/02/12 07:33:10;;;;;;;28.52;5.50;;;;;;;-1.54;100.00;102934.91;4998744;28;20045;-75
2022/02/12 07:35:36;;;;;;;19.15;5.25;;;;;;;-1.46;100.00;102941.69;4955161;28;20045;-75
2022/02/12 07:38:01;;;;;;;19.38;5.00;;;;;;;-1.33;100.00;102937.28;4986459;28;20039;-75
2022/02/12 07:40:28;;;;;;;24.42;5.10;;;;;;;-1.29;100.00;102938.09;4988955;28;20268;-75
2022/02/12 07:42:54;;;;;;;19.45;4.93;;;;;;;-1.25;100.00;102934.63;4979587;28;20026;-76
2022/02/12 07:45:19;;;;;;;18.38;5.05;;;;;;;-1.22;100.00;102942.31;4944357;28;20395;-76
2022/02/12 07:47:47;;;;;;;24.27;4.88;;;;;;;-1.22;100.00;102940.59;4986165;28;20038;-76
2022/02/12 07:50:14;;;;;;;14.40;5.15;;;;;;;-1.16;100.00;102943.97;4987015;28;20045;-75
2022/02/12 07:52:42;;;;;;;21.40;5.00;;;;;;;-1.14;100.00;102947.38;4988014;28;20080;-75
2022/02/12 07:55:12;;;;;;;26.77;4.68;;;;;;;-1.14;100.00;102937.94;4990866;28;20046;-76
2022/02/12 07:57:38;;;;;;;23.45;4.78;;;;;;;-1.05;100.00;102936.97;4967848;28;20064;-76
2022/02/12 08:00:06;;;;;;;18.92;5.07;;;;;;;-0.95;100.00;102940.31;4984414;28;20035;-76
2022/02/12 08:02:37;;;;;;;15.18;3.95;;;;;;;-1.00;100.00;102941.22;4983712;28;20117;-75
2022/02/12 08:05:03;;;;;;;14.45;4.13;;;;;;;-1.01;100.00;102939.50;4989952;28;20045;-76
2022/02/12 08:07:29;;;;;;;21.63;5.00;;;;;;;-0.93;100.00;102939.41;4969817;28;20101;-76
2022/02/12 08:11:22;;;;;;;20.10;4.90;;;;;;;-0.99;100.00;102932.59;4975624;28;20804;-75
2022/02/12 08:12:49;;;;;;;18.98;4.35;;;;;;;-0.90;100.00;102934.22;4986947;28;20038;-75
2022/02/12 08:15:15;;;;;;;20.85;4.82;;;;;;;-0.84;100.00;102934.13;4993129;28;20046;-76
2022/02/12 08:17:41;;;;;;;24.27;4.82;;;;;;;-0.80;100.00;102922.06;4976044;28;20392;-76
2022/02/12 08:20:09;;;;;;;21.48;4.63;;;;;;;-0.70;100.00;102933.09;4995819;28;20041;-75
2022/02/12 08:22:35;;;;;;;25.23;4.80;;;;;;;-0.60;100.00;102940.72;4991060;28;20378;-75
2022/02/12 08:25:00;;;;;;;21.77;4.70;;;;;;;-0.57;100.00;102933.81;4988821;28;20038;-75
2022/02/12 08:27:28;;;;;;;20.52;4.85;;;;;;;-0.52;100.00;102939.75;4974522;28;20117;-75
2022/02/12 08:29:54;;;;;;;22.42;4.53;;;;;;;-0.40;100.00;102939.56;4975920;28;20044;-76
2022/02/12 08:32:21;;;;;;;20.98;5.00;;;;;;;-0.36;100.00;102942.97;4991807;28;20036;-75
2022/02/12 08:34:48;;;;;;;20.90;4.82;;;;;;;-0.28;100.00;102941.16;4988613;28;20807;-74
2022/02/12 08:37:14;;;;;;;19.83;5.38;;;;;;;-0.26;100.00;102941.97;4987782;28;20030;-75
2022/02/12 08:39:40;;;;;;;24.33;4.43;;;;;;;-0.10;100.00;102937.41;4971997;28;20149;-75
2022/02/12 08:42:06;;;;;;;22.75;4.63;;;;;;;-0.09;100.00;102932.25;4969933;28;20082;-75
2022/02/12 08:44:33;;;;;;;15.68;4.28;;;;;;;-0.04;100.00;102939.91;4985292;28;20081;-75
2022/02/12 08:46:59;;;;;;;20.27;5.13;;;;;;;0.01;100.00;102934.69;4986123;28;20109;-75
2022/02/12 08:49:24;;;;;;;23.50;4.63;;;;;;;0.09;100.00;102928.50;4990097;28;20069;-75
2022/02/12 08:51:51;;;;;;;14.35;4.63;;;;;;;0.19;100.00;102934.38;4971237;28;20034;-75
2022/02/12 08:54:17;;;;;;;18.75;4.82;;;;;;;0.25;100.00;102934.28;4974340;28;20472;-75
2022/02/12 08:56:44;;;;;;;18.00;4.47;;;;;;;0.43;100.00;102929.66;4966822;28;20050;-75
2022/02/12 08:59:10;;;;;;;17.17;4.28;;;;;;;0.46;100.00;102937.38;4974939;28;20105;-74
2022/02/12 09:01:37;;;;;;;17.15;4.65;;;;;;;0.53;100.00;102929.47;4985934;28;20134;-75
2022/02/12 09:04:08;;;;;;;17.92;4.55;;;;;;;0.59;100.00;102918.19;4979885;28;20048;-74
2022/02/12 09:06:34;;;;;;;20.27;4.45;;;;;;;0.62;100.00;102925.84;4986554;28;20062;-75
2022/02/12 09:09:02;;;;;;;16.00;4.15;;;;;;;0.64;100.00;102913.78;4991835;28;20053;-74
2022/02/12 09:11:30;;;;;;;22.95;4.53;;;;;;;0.74;100.00;102920.47;4987199;28;20133;-75
2022/02/12 09:13:56;;;;;;;20.48;4.50;;;;;;;0.74;100.00;102909.28;4963163;28;20046;-75
2022/02/12 09:16:24;;;;;;;14.27;3.97;;;;;;;0.84;100.00;102905.63;4980087;28;20042;-75
2022/02/12 09:18:52;;;;;;;25.45;4.80;;;;;;;0.89;100.00;102902.97;4967968;28;20037;-75
2022/02/12 09:21:19;;;;;;;19.08;4.60;;;;;;;0.99;100.00;102909.66;4981921;28;20034;-75
2022/02/12 09:23:45;;;;;;;15.23;4.20;;;;;;;1.05;100.00;102909.50;4974468;28;20046;-75
2022/02/12 09:26:11;;;;;;;21.25;4.10;;;;;;;1.10;100.00;102906.84;4981808;28;20544;-76
2022/02/12 09:28:36;;;;;;;11.88;3.90;;;;;;;1.03;100.00;102903.53;4970445;28;20117;-74
2022/02/12 09:31:02;;;;;;;17.08;3.65;;;;;;;1.03;100.00;102900.94;4986658;28;20484;-75
2022/02/12 09:33:28;;;;;;;20.20;3.90;;;;;;;1.05;100.00;102899.16;4984630;28;20030;-74
2022/02/12 09:35:56;;;;;;;19.10;3.90;;;;;;;1.12;100.00;102903.34;4955734;28;20432;-75
2022/02/12 09:38:23;;;;;;;22.85;3.78;;;;;;;1.14;100.00;102896.41;4970001;28;20038;-75
2022/02/12 09:40:50;;;;;;;18.80;4.03;;;;;;;1.19;100.00;102898.91;4989017;28;20512;-75
2022/02/12 09:43:19;;;;;;;15.95;3.58;;;;;;;1.24;100.00;102891.03;4989638;28;20640;-75
2022/02/12 09:45:56;;;;;;;16.15;3.78;;;;;;;1.32;100.00;102887.41;4981808;28;20031;-74
2022/02/12 09:48:23;;;;;;;18.02;4.05;;;;;;;1.36;100.00;102878.69;4982808;28;20033;-75
2022/02/12 09:50:51;;;;;;;17.10;3.83;;;;;;;1.43;100.00;102876.81;4971692;28;20084;-75
2022/02/12 09:53:17;;;;;;;12.82;3.42;;;;;;;1.54;100.00;102879.16;4982765;28;20034;-75
2022/02/12 09:55:42;;;;;;;16.33;4.18;;;;;;;1.64;100.00;102872.88;4987256;28;20034;-75
2022/02/12 09:58:10;;;;;;;18.33;3.78;;;;;;;1.69;100.00;102872.75;4985288;28;20034;-74
2022/02/12 10:00:36;;;;;;;19.98;4.32;;;;;;;1.77;100.00;102875.16;5003803;28;20061;-74
2022/02/12 10:03:03;;;;;;;19.35;3.58;;;;;;;1.82;98.89;102870.72;4985108;28;20069;-74
2022/02/12 10:05:29;;;;;;;16.08;2.78;;;;;;;1.85;96.92;102875.84;4968338;28;20042;-74
2022/02/12 10:08:01;;;;;;;17.90;3.20;;;;;;;1.93;95.31;102866.16;4976239;28;20109;-74
2022/02/12 10:10:28;;;;;;;18.23;3.20;;;;;;;1.90;92.80;102866.22;4969423;28;20492;-74
2022/02/12 10:13:09;;;;;;;12.65;2.83;;;;;;;1.94;93.55;102868.69;4969981;28;20038;-74
2022/02/12 10:15:35;;;;;;;9.18;2.72;;;;;;;1.87;92.55;102872.31;4989340;28;20034;-77
2022/02/12 10:18:01;;;;;;;20.48;3.20;;;;;;;2.00;91.86;102866.81;4970565;28;20390;-74
2022/02/12 10:20:33;;;;;;;18.27;3.10;;;;;;;2.01;92.17;102859.03;4976405;28;20543;-75
2022/02/12 10:23:06;;;;;;;10.63;2.67;;;;;;;2.09;89.74;102861.41;4973507;28;20038;-74
2022/02/12 10:25:31;;;;;;;9.70;2.70;;;;;;;2.26;91.39;102851.47;4967736;28;20049;-75
2022/02/12 10:27:58;;;;;;;12.85;2.88;;;;;;;2.48;89.96;102862.09;4990339;28;20066;-75
2022/02/12 10:30:28;;;;;;;15.00;2.63;;;;;;;2.56;88.03;102868.81;4963830;28;20042;-74
2022/02/12 10:32:58;;;;;;;14.90;2.60;;;;;;;2.56;88.06;102855.84;4981684;28;20398;-74
2022/02/12 10:35:25;;;;;;;18.60;2.88;;;;;;;2.63;87.79;102857.38;4986481;28;20445;-75
2022/02/12 10:37:51;;;;;;;12.55;2.63;;;;;;;2.68;87.45;102842.56;4986197;28;20122;-75
2022/02/12 10:40:17;;;;;;;10.75;2.22;;;;;;;2.77;86.51;102839.72;4990710;28;20121;-74
2022/02/12 10:42:46;;;;;;;13.02;2.28;;;;;;;2.88;84.61;102837.66;4997654;28;20041;-75
2022/02/12 10:45:19;;;;;;;13.90;2.80;;;;;;;2.96;83.87;102839.16;4983064;28;20061;-74
2022/02/12 10:47:45;;;;;;;;;;;;;;;2.97;82.33;102839.09;4982776;28;20030;-75
2022/02/12 10:50:12;;;;;;;18.42;2.63;;;;;;;3.02;82.73;102820.84;4988687;28;20542;-76
2022/02/12 10:52:46;;;;;;;10.65;2.40;;;;;;;3.24;83.67;102828.78;4981404;28;20026;-75
2022/02/12 10:55:30;;;;;;;11.35;2.25;;;;;;;3.36;82.07;102824.97;4979653;28;20034;-76
2022/02/12 10:57:57;;;;;;;12.50;2.53;;;;;;;3.40;81.48;102822.22;4980047;28;20035;-76
2022/02/12 11:00:24;;;;;;;11.50;2.13;;;;;;;3.45;79.28;102819.50;4959405;28;20720;-76
2022/02/12 11:02:51;;;;;;;12.73;2.30;;;;;;;3.45;79.53;102820.34;4988180;28;20033;-76
2022/02/12 11:05:19;;;;;;;16.45;2.90;;;;;;;3.46;78.06;102816.00;4984006;28;20038;-75
2022/02/12 11:07:45;;;;;;;15.82;2.53;;;;;;;3.44;79.36;102800.47;4988086;28;20042;-75
2022/02/12 11:10:11;;;;;;;8.73;1.90;;;;;;;3.51;79.99;102799.38;4976980;28;20219;-76
2022/02/12 11:12:37;;;;;;;6.53;1.90;;;;;;;3.56;79.72;102793.19;4983560;28;20034;-76
2022/02/12 11:15:02;;;;;;;10.35;2.08;;;;;;;3.56;79.05;102799.25;4977975;28;20567;-75
2022/02/12 11:17:31;;;;;;;14.65;2.13;;;;;;;3.69;77.87;102784.97;4978922;28;20542;-76